Time;durP1;ratioP1;P1;durP2;ratioP2;P2;SDS_P1;SDS_P2;PMS_P1;PMS_P2;Temp;Humidity;BMP_temperature;BMP_pressure;BME280_temperature;BME280_humidity;BME280_pressure;Samples;Min_cycle;Max_cycle;Signal;HPM_P1;HPM_P2
2023/08/16 00:03:25;;;;;;;11.82;6.72;;;;;;;13.28;100.00;101934.28;10478438;28;20089;-65
2023/08/16 00:08:25;;;;;;;12.07;7.03;;;;;;;13.30;100.00;101934.91;10478968;28;20996;-65
2023/08/16 00:13:26;;;;;;;13.35;6.68;;;;;;;13.26;100.00;101926.25;10476302;28;20049;-65
2023/08/16 00:18:28;;;;;;;12.70;7.25;;;;;;;13.18;100.00;101929.41;10446721;28;20128;-65
2023/08/16 00:23:28;;;;;;;10.23;7.20;;;;;;;13.11;100.00;101920.41;10438845;28;20034;-65
2023/08/16 00:28:28;;;;;;;17.67;8.45;;;;;;;13.06;100.00;101914.78;10430877;28;20041;-65
2023/08/16 00:33:29;;;;;;;13.32;7.70;;;;;;;12.98;100.00;101916.03;10427340;28;20044;-65
2023/08/16 00:38:29;;;;;;;16.08;8.40;;;;;;;12.96;100.00;101915.44;10437955;28;20045;-65
2023/08/16 00:43:30;;;;;;;19.75;11.40;;;;;;;13.05;100.00;101926.94;10427158;28;20033;-65
2023/08/16 00:48:31;;;;;;;20.33;11.15;;;;;;;13.22;100.00;101929.75;10430358;28;20092;-66
2023/08/16 00:53:31;;;;;;;17.92;11.43;;;;;;;13.36;100.00;101922.03;10430563;28;20048;-65
2023/08/16 00:58:32;;;;;;;17.13;11.10;;;;;;;13.40;100.00;101932.34;10435961;28;20044;-65
2023/08/16 01:03:32;;;;;;;18.23;10.80;;;;;;;13.49;100.00;101938.31;10431471;28;20127;-66
2023/08/16 01:08:33;;;;;;;18.55;10.88;;;;;;;13.55;100.00;101944.78;10437064;28;20099;-66
2023/08/16 01:13:37;;;;;;;19.95;10.93;;;;;;;13.51;100.00;101933.38;10433428;28;20041;-65
2023/08/16 01:18:39;;;;;;;20.40;10.90;;;;;;;13.57;100.00;101948.16;10419247;28;20045;-65
2023/08/16 01:24:06;;;;;;;15.70;9.90;;;;;;;13.31;100.00;101933.81;10437962;28;20045;-65
2023/08/16 01:29:06;;;;;;;14.97;8.93;;;;;;;13.35;100.00;101953.53;10478946;28;20067;-65
2023/08/16 01:34:07;;;;;;;16.10;9.23;;;;;;;13.16;100.00;101950.91;10481950;28;20041;-65
2023/08/16 01:39:08;;;;;;;11.90;8.45;;;;;;;13.04;100.00;101950.97;10479426;28;20077;-65
2023/08/16 01:44:08;;;;;;;22.80;10.80;;;;;;;12.92;100.00;101958.47;10455644;28;20108;-64
2023/08/16 01:49:09;;;;;;;17.38;9.35;;;;;;;12.91;100.00;101962.28;10481189;28;20036;-65
2023/08/16 01:54:10;;;;;;;14.05;10.00;;;;;;;12.89;100.00;101976.34;10479115;28;20048;-65
2023/08/16 01:59:10;;;;;;;16.02;11.32;;;;;;;12.83;100.00;101970.94;10481077;28;20113;-65
2023/08/16 02:04:11;;;;;;;16.98;8.68;;;;;;;12.77;100.00;101974.69;10478121;28;20056;-65
2023/08/16 02:09:11;;;;;;;20.23;9.77;;;;;;;12.68;100.00;101969.53;10478714;28;20029;-66
2023/08/16 02:14:12;;;;;;;19.13;9.25;;;;;;;12.62;100.00;101975.19;10484041;28;20588;-66
2023/08/16 02:19:12;;;;;;;14.80;8.65;;;;;;;12.56;100.00;101968.69;10476450;28;20041;-65
2023/08/16 02:24:13;;;;;;;12.73;8.60;;;;;;;12.47;100.00;101970.97;10476345;28;20046;-66
2023/08/16 02:29:13;;;;;;;16.40;9.48;;;;;;;12.44;100.00;101967.84;10484712;28;20074;-65
2023/08/16 02:34:14;;;;;;;13.23;9.02;;;;;;;12.36;100.00;101960.78;10477187;28;20480;-66
2023/08/16 02:39:14;;;;;;;12.98;8.75;;;;;;;12.34;100.00;101973.13;10481240;28;20082;-66
2023/08/16 02:44:15;;;;;;;17.02;8.95;;;;;;;12.30;100.00;101970.88;10479962;28;20096;-66
2023/08/16 02:49:15;;;;;;;17.60;9.52;;;;;;;12.24;100.00;101968.22;10477064;28;20036;-65
2023/08/16 02:54:15;;;;;;;17.65;10.23;;;;;;;12.22;100.00;101976.75;10478699;28;20468;-65
2023/08/16 02:59:16;;;;;;;15.48;8.88;;;;;;;12.21;100.00;101975.03;10477504;28;20044;-65
2023/08/16 03:04:16;;;;;;;16.70;9.82;;;;;;;12.17;100.00;101975.75;10479959;28;20051;-65
2023/08/16 03:09:17;;;;;;;16.52;9.43;;;;;;;12.11;100.00;101961.00;10474807;28;20072;-64
2023/08/16 03:14:17;;;;;;;16.63;10.13;;;;;;;12.06;100.00;101956.19;10469080;28;20123;-65
2023/08/16 03:19:18;;;;;;;17.40;10.77;;;;;;;12.10;100.00;101962.09;10468274;28;20037;-65
2023/08/16 03:24:18;;;;;;;21.08;11.32;;;;;;;12.18;100.00;101955.38;10477043;28;20056;-65
2023/08/16 03:29:19;;;;;;;19.38;11.50;;;;;;;12.20;100.00;101984.41;10467909;28;20522;-65
2023/08/16 03:34:19;;;;;;;22.88;12.32;;;;;;;12.32;100.00;101987.19;10481904;28;20041;-66
2023/08/16 03:39:20;;;;;;;19.30;12.10;;;;;;;12.36;100.00;101988.41;10473259;28;20033;-66
2023/08/16 03:44:21;;;;;;;18.42;10.30;;;;;;;12.32;100.00;101996.31;10474081;28;20162;-63
2023/08/16 03:49:21;;;;;;;20.90;10.45;;;;;;;12.24;100.00;101999.44;10478263;28;20044;-66
2023/08/16 03:54:21;;;;;;;17.10;10.75;;;;;;;12.09;100.00;101988.00;10475403;28;20048;-65
2023/08/16 03:59:22;;;;;;;17.42;9.75;;;;;;;12.15;100.00;102000.84;10476248;28;20040;-65
2023/08/16 04:04:23;;;;;;;19.90;10.07;;;;;;;12.17;100.00;101998.69;10475653;28;20029;-65
2023/08/16 04:09:24;;;;;;;15.55;10.20;;;;;;;12.13;100.00;102004.94;10474961;28;20060;-65
2023/08/16 04:14:25;;;;;;;22.90;11.30;;;;;;;12.10;100.00;102012.59;10467396;28;20048;-65
2023/08/16 04:19:25;;;;;;;18.60;10.93;;;;;;;12.11;100.00;102017.06;10490479;28;20044;-66
2023/08/16 04:24:26;;;;;;;17.73;10.23;;;;;;;12.09;100.00;102010.94;10473417;28;20045;-66
2023/08/16 04:29:26;;;;;;;16.25;9.80;;;;;;;12.07;100.00;102013.09;10471470;28;20087;-66
2023/08/16 04:34:27;;;;;;;18.33;10.65;;;;;;;12.09;100.00;102021.13;10477641;28;20066;-66
2023/08/16 04:39:27;;;;;;;22.02;9.95;;;;;;;12.11;100.00;102018.97;10435349;28;20104;-66
2023/08/16 04:44:28;;;;;;;18.65;11.45;;;;;;;12.19;100.00;102026.91;10459336;28;20045;-66
2023/08/16 04:49:28;;;;;;;20.42;11.32;;;;;;;12.25;100.00;102023.19;10475382;28;20048;-66
2023/08/16 04:54:29;;;;;;;22.65;11.63;;;;;;;12.30;100.00;102020.56;10479642;28;20052;-66
2023/08/16 04:59:29;;;;;;;27.00;13.38;;;;;;;12.37;100.00;102028.75;10473153;28;20049;-65
2023/08/16 05:04:29;;;;;;;21.80;12.90;;;;;;;12.53;100.00;102038.25;10480392;28;20052;-65
2023/08/16 05:09:30;;;;;;;27.55;13.80;;;;;;;12.66;100.00;102042.69;10483130;28;20033;-64
2023/08/16 05:14:30;;;;;;;21.45;12.80;;;;;;;12.79;100.00;102047.97;10475614;28;20093;-66
2023/08/16 05:19:31;;;;;;;18.55;10.98;;;;;;;12.88;100.00;102051.22;10466595;28;20056;-65
2023/08/16 05:24:31;;;;;;;19.90;11.23;;;;;;;12.82;100.00;102053.03;10475141;28;20116;-65
2023/08/16 05:29:32;;;;;;;21.63;11.73;;;;;;;12.97;100.00;102066.34;10474684;28;20043;-65
2023/08/16 05:34:32;;;;;;;20.83;11.50;;;;;;;13.00;100.00;102065.88;10484270;28;20633;-65
2023/08/16 05:39:33;;;;;;;21.48;10.45;;;;;;;13.00;100.00;102063.13;10476947;28;20037;-65
2023/08/16 05:44:33;;;;;;;18.23;9.35;;;;;;;13.14;100.00;102060.94;10481046;28;20088;-65
2023/08/16 05:49:34;;;;;;;16.92;9.88;;;;;;;13.25;100.00;102056.44;10480878;28;20071;-65
2023/08/16 05:54:34;;;;;;;19.58;11.60;;;;;;;13.59;100.00;102057.50;10483016;28;20176;-65
2023/08/16 05:59:35;;;;;;;19.17;11.27;;;;;;;14.02;100.00;102066.34;10482323;28;20064;-65
2023/08/16 06:04:36;;;;;;;21.70;12.05;;;;;;;14.46;100.00;102072.09;10476615;28;20437;-66
2023/08/16 06:09:36;;;;;;;17.85;11.07;;;;;;;14.87;100.00;102073.63;10457105;28;20061;-66
2023/08/16 06:14:37;;;;;;;18.75;11.57;;;;;;;15.25;100.00;102074.72;10469349;28;20056;-65
2023/08/16 06:19:37;;;;;;;17.88;9.80;;;;;;;15.71;100.00;102082.81;10458521;28;20142;-66
2023/08/16 06:24:38;;;;;;;13.35;9.35;;;;;;;16.13;100.00;102085.81;10467146;28;20045;-64
2023/08/16 06:29:38;;;;;;;11.60;8.23;;;;;;;16.39;100.00;102094.41;10487543;28;20044;-65
2023/08/16 06:34:39;;;;;;;14.38;9.88;;;;;;;16.51;100.00;102111.72;10473637;28;20122;-64
2023/08/16 06:39:39;;;;;;;17.92;9.52;;;;;;;16.72;100.00;102121.09;10458170;28;20041;-65
2023/08/16 06:44:40;;;;;;;11.52;8.73;;;;;;;17.03;100.00;102126.94;10463015;28;20037;-65
2023/08/16 06:49:40;;;;;;;11.88;9.60;;;;;;;17.23;100.00;102136.50;10451103;28;20045;-67
2023/08/16 06:54:42;;;;;;;16.35;8.93;;;;;;;17.39;100.00;102129.94;10482631;28;20052;-66
2023/08/16 06:59:43;;;;;;;17.17;9.25;;;;;;;17.53;100.00;102141.44;10465612;28;20095;-65
2023/08/16 07:04:44;;;;;;;11.48;7.18;;;;;;;17.83;100.00;102145.47;10461717;28;20041;-66
2023/08/16 07:09:44;;;;;;;9.02;6.40;;;;;;;18.14;100.00;102149.22;10460231;28;20315;-66
2023/08/16 07:14:45;;;;;;;7.63;5.30;;;;;;;18.33;100.00;102150.38;10441897;28;20056;-66
2023/08/16 07:19:48;;;;;;;10.80;5.20;;;;;;;18.37;100.00;102152.59;10456043;28;20036;-65
2023/08/16 07:24:48;;;;;;;7.03;3.53;;;;;;;18.52;100.00;102153.47;10466895;28;20066;-65
2023/08/16 07:29:49;;;;;;;9.15;4.88;;;;;;;18.66;100.00;102153.75;10460573;28;20045;-65
2023/08/16 07:34:49;;;;;;;7.05;3.90;;;;;;;19.03;100.00;102158.25;10461040;28;20485;-65
2023/08/16 07:39:50;;;;;;;4.72;3.58;;;;;;;19.50;100.00;102159.00;10463494;28;20040;-65
2023/08/16 07:44:50;;;;;;;6.78;3.47;;;;;;;19.80;100.00;102160.06;10460396;28;20436;-65
2023/08/16 07:49:51;;;;;;;5.43;3.58;;;;;;;19.76;100.00;102162.56;10456474;28;20049;-65
2023/08/16 07:54:51;;;;;;;5.30;2.92;;;;;;;19.82;100.00;102175.41;10460018;28;20040;-65
2023/08/16 07:59:52;;;;;;;6.15;2.72;;;;;;;19.76;100.00;102159.78;10464374;28;20044;-66
2023/08/16 08:04:52;;;;;;;11.77;3.17;;;;;;;19.59;100.00;102176.03;10460301;28;20033;-65
2023/08/16 08:09:53;;;;;;;4.68;2.05;;;;;;;19.30;100.00;102185.03;10456633;28;20037;-65
2023/08/16 08:14:53;;;;;;;8.20;3.40;;;;;;;19.43;100.00;102192.84;10459458;28;20051;-66
2023/08/16 08:19:54;;;;;;;5.15;2.78;;;;;;;19.31;100.00;102190.34;10465497;28;20045;-65
2023/08/16 08:24:54;;;;;;;5.43;2.90;;;;;;;19.28;100.00;102204.00;10444910;28;20041;-65
2023/08/16 08:29:55;;;;;;;4.80;2.83;;;;;;;19.29;100.00;102206.53;10413525;28;20348;-65
2023/08/16 08:34:55;;;;;;;3.63;2.35;;;;;;;19.54;100.00;102208.44;10410089;28;20060;-65
2023/08/16 08:39:56;;;;;;;3.55;2.60;;;;;;;19.67;100.00;102201.41;10426387;28;20080;-66
2023/08/16 08:44:56;;;;;;;3.90;2.40;;;;;;;19.65;100.00;102202.81;10463105;28;20041;-65
2023/08/16 08:49:57;;;;;;;5.28;2.38;;;;;;;19.70;100.00;102203.69;10466374;28;20056;-66
2023/08/16 08:54:58;;;;;;;4.97;2.20;;;;;;;20.01;100.00;102217.56;10450512;28;20037;-65
2023/08/16 09:00:00;;;;;;;2.97;1.75;;;;;;;20.34;100.00;102220.75;10436980;28;20118;-65
2023/08/16 09:05:04;;;;;;;4.78;1.42;;;;;;;20.62;100.00;102204.41;10434889;28;20049;-66
2023/08/16 09:10:06;;;;;;;1.48;1.30;;;;;;;20.95;100.00;102202.75;10451480;28;20041;-66
2023/08/16 09:15:10;;;;;;;3.50;1.00;;;;;;;21.30;100.00;102211.97;10462633;28;20036;-66
2023/08/16 09:20:12;;;;;;;1.92;1.08;;;;;;;21.64;100.00;102197.91;10452404;28;20047;-65
2023/08/16 09:25:12;;;;;;;3.13;1.10;;;;;;;22.04;100.00;102194.91;10449593;28;20041;-65
2023/08/16 09:30:13;;;;;;;3.47;1.10;;;;;;;22.38;100.00;102194.75;10450643;28;20029;-64
2023/08/16 09:35:14;;;;;;;1.52;0.70;;;;;;;22.68;100.00;102190.66;10454007;28;20056;-65
2023/08/16 09:40:15;;;;;;;3.38;0.73;;;;;;;22.51;100.00;102193.16;10457865;28;20048;-65
2023/08/16 09:45:24;;;;;;;1.75;0.80;;;;;;;22.79;100.00;102205.34;10449379;28;20064;-65
2023/08/16 09:50:26;;;;;;;2.65;1.10;;;;;;;23.23;100.00;102192.00;10463431;28;20532;-65
2023/08/16 09:55:28;;;;;;;6.53;1.10;;;;;;;23.59;100.00;102191.34;10419653;28;20044;-66
2023/08/16 10:00:30;;;;;;;2.88;1.92;;;;;;;24.06;100.00;102164.81;10455740;28;20317;-66
2023/08/16 10:05:30;;;;;;;3.30;0.90;;;;;;;24.40;100.00;102168.25;10464882;28;20448;-66
2023/08/16 10:10:31;;;;;;;2.20;0.70;;;;;;;24.71;100.00;102162.75;10459357;28;20037;-66
2023/08/16 10:15:32;;;;;;;2.45;1.00;;;;;;;24.96;100.00;102159.28;10462891;28;20060;-65
2023/08/16 10:20:33;;;;;;;3.63;1.25;;;;;;;25.06;100.00;102158.19;10466453;28;20040;-66
2023/08/16 10:25:36;;;;;;;1.88;0.60;;;;;;;24.79;100.00;102152.72;10467998;28;20096;-65
2023/08/16 10:30:37;;;;;;;2.85;0.77;;;;;;;24.91;100.00;102144.50;10478988;28;20060;-65
2023/08/16 10:35:38;;;;;;;1.75;0.80;;;;;;;24.91;100.00;102150.16;10477803;28;20078;-66
2023/08/16 10:40:38;;;;;;;1.67;0.60;;;;;;;24.68;100.00;102150.16;10472902;28;20067;-65
2023/08/16 10:45:44;;;;;;;2.88;0.55;;;;;;;24.20;100.00;102133.81;10481067;28;20043;-65
2023/08/16 10:50:55;;;;;;;1.27;0.75;;;;;;;24.40;100.00;102140.94;10448988;28;20097;-66
2023/08/16 10:55:56;;;;;;;2.28;0.70;;;;;;;23.92;100.00;102133.88;10454111;28;20686;-65
2023/08/16 11:00:58;;;;;;;2.75;0.40;;;;;;;23.25;100.00;102139.16;10440606;28;20037;-65
2023/08/16 11:06:00;;;;;;;1.52;0.40;;;;;;;23.63;100.00;102130.53;10473106;28;20056;-65
2023/08/16 11:11:01;;;;;;;1.88;0.50;;;;;;;23.86;100.00;102137.94;10461961;28;20044;-65
2023/08/16 11:16:02;;;;;;;3.00;0.60;;;;;;;24.19;100.00;102140.59;10472794;28;20036;-65
2023/08/16 11:21:03;;;;;;;1.35;0.30;;;;;;;23.86;100.00;102149.19;10465132;28;20060;-64
2023/08/16 11:26:04;;;;;;;2.85;0.57;;;;;;;23.41;100.00;102134.06;10472666;28;20162;-64
2023/08/16 11:31:06;;;;;;;2.20;0.63;;;;;;;23.08;100.00;102151.81;10473012;28;20044;-65
2023/08/16 11:36:08;;;;;;;2.55;0.85;;;;;;;23.30;100.00;102155.94;10477046;28;20407;-66
2023/08/16 11:41:09;;;;;;;1.35;0.65;;;;;;;24.13;100.00;102155.94;10473615;28;20531;-65
2023/08/16 11:46:10;;;;;;;1.10;0.40;;;;;;;24.98;100.00;102153.34;10473502;28;20037;-65
2023/08/16 11:51:11;;;;;;;0.88;0.40;;;;;;;25.76;100.00;102152.91;10468041;28;20037;-66
2023/08/16 11:56:12;;;;;;;0.80;0.50;;;;;;;26.08;100.00;102142.38;10449045;28;20041;-66
2023/08/16 12:01:16;;;;;;;11.23;0.70;;;;;;;26.18;97.89;102122.31;10476419;28;20028;-65
2023/08/16 12:06:16;;;;;;;4.07;0.47;;;;;;;26.70;97.94;102130.78;10471074;28;20047;-65
2023/08/16 12:11:49;;;;;;;1.08;0.40;;;;;;;27.42;98.16;102133.13;10462874;28;20644;-65
2023/08/16 12:16:50;;;;;;;2.03;0.50;;;;;;;28.08;92.83;102122.09;10440466;28;20071;-66
2023/08/16 12:21:52;;;;;;;0.90;0.43;;;;;;;28.63;87.16;102108.84;10462752;28;20086;-65
2023/08/16 12:26:53;;;;;;;1.23;0.40;;;;;;;29.62;86.09;102109.84;10470924;28;20123;-66
2023/08/16 12:31:54;;;;;;;2.30;0.60;;;;;;;29.86;79.53;102092.00;10470537;28;20052;-65
2023/08/16 12:36:54;;;;;;;0.98;0.40;;;;;;;29.92;81.04;102101.91;10470569;28;20238;-66
2023/08/16 12:41:55;;;;;;;1.85;0.60;;;;;;;30.09;80.08;102091.47;10470713;28;20044;-66
2023/08/16 12:46:55;;;;;;;3.80;0.50;;;;;;;29.92;77.76;102096.25;10470751;28;20045;-66
2023/08/16 12:51:56;;;;;;;3.88;0.60;;;;;;;29.15;76.83;102098.97;10468877;28;20037;-65
2023/08/16 12:56:56;;;;;;;1.92;0.50;;;;;;;29.22;78.76;102112.56;10463588;28;20560;-66
2023/08/16 13:01:57;;;;;;;2.15;0.50;;;;;;;27.88;78.32;102112.41;10463345;28;20045;-66
2023/08/16 13:06:59;;;;;;;1.58;0.30;;;;;;;28.34;81.41;102116.25;10469878;28;20037;-66
2023/08/16 13:12:00;;;;;;;1.48;0.40;;;;;;;29.37;79.96;102109.00;10486386;28;20033;-65
2023/08/16 13:17:00;;;;;;;1.15;0.52;;;;;;;30.24;75.49;102089.88;10477275;28;20049;-65
2023/08/16 13:22:01;;;;;;;0.40;0.35;;;;;;;30.50;72.87;102080.94;10485924;28;20055;-66
2023/08/16 13:27:01;;;;;;;1.48;0.40;;;;;;;30.38;72.26;102071.25;10479461;28;20048;-65
2023/08/16 13:32:02;;;;;;;1.50;0.40;;;;;;;30.25;69.40;102075.31;10471209;28;20453;-66
2023/08/16 13:37:03;;;;;;;4.65;0.47;;;;;;;29.64;73.29;102083.94;10477832;28;20575;-66
2023/08/16 13:42:03;;;;;;;1.42;0.43;;;;;;;29.76;71.68;102069.78;10472211;28;20473;-65
2023/08/16 13:47:04;;;;;;;2.30;0.47;;;;;;;29.79;69.74;102063.38;10480203;28;20044;-65
2023/08/16 13:52:05;;;;;;;1.67;0.47;;;;;;;29.98;71.23;102074.09;10479802;28;20507;-65
2023/08/16 13:57:05;;;;;;;6.47;1.40;;;;;;;29.89;72.22;102079.94;10481626;28;20044;-66
2023/08/16 14:02:06;;;;;;;1.95;0.68;;;;;;;30.00;68.88;102074.56;10473763;28;20045;-63
2023/08/16 14:07:06;;;;;;;1.50;0.52;;;;;;;29.78;72.72;102079.56;10470451;28;20152;-65
2023/08/16 14:12:07;;;;;;;3.42;0.60;;;;;;;29.52;73.36;102062.94;10476293;28;20052;-66
2023/08/16 14:17:08;;;;;;;3.20;1.00;;;;;;;29.46;78.49;102098.38;10475968;28;20067;-65
2023/08/16 14:22:08;;;;;;;3.95;0.60;;;;;;;29.90;77.08;102087.25;10482693;28;20033;-67
2023/08/16 14:27:08;;;;;;;3.38;1.23;;;;;;;29.28;74.35;102018.38;10473034;28;20048;-67
2023/08/16 14:32:09;;;;;;;3.70;0.80;;;;;;;29.25;75.96;102072.97;10476187;28;20075;-67
2023/08/16 14:37:09;;;;;;;4.22;0.70;;;;;;;29.20;75.81;102078.03;10482417;28;20052;-67
2023/08/16 14:42:10;;;;;;;4.57;0.80;;;;;;;29.01;76.90;102073.75;10474195;28;20069;-67
2023/08/16 14:47:10;;;;;;;3.70;0.70;;;;;;;28.77;76.30;102081.03;10474348;28;20045;-67
2023/08/16 14:52:11;;;;;;;2.58;0.93;;;;;;;29.13;77.08;102076.63;10476648;28;20045;-67
2023/08/16 14:57:11;;;;;;;3.85;0.90;;;;;;;29.28;76.10;102079.94;10477732;28;20041;-67
2023/08/16 15:02:13;;;;;;;2.75;0.50;;;;;;;28.93;78.21;102078.31;10478054;28;20051;-70
2023/08/16 15:07:13;;;;;;;2.40;0.88;;;;;;;28.37;79.45;102090.03;10457258;28;20041;-71
2023/08/16 15:12:16;;;;;;;6.28;2.13;;;;;;;28.06;79.53;102086.81;10456360;28;20041;-70
2023/08/16 15:17:17;;;;;;;4.72;1.80;;;;;;;27.58;81.79;102086.94;10469533;28;20057;-71
2023/08/16 15:22:17;;;;;;;5.88;2.08;;;;;;;27.49;81.91;102094.66;10451821;28;20036;-69
2023/08/16 15:27:18;;;;;;;3.50;1.00;;;;;;;26.94;82.28;102037.00;10466069;28;20051;-72
2023/08/16 15:32:18;;;;;;;1.80;0.90;;;;;;;27.36;80.53;102101.34;10471391;28;20345;-70
2023/08/16 15:37:19;;;;;;;1.42;0.68;;;;;;;26.84;81.19;102098.69;10487373;28;20044;-70
2023/08/16 15:42:19;;;;;;;2.25;0.80;;;;;;;26.54;81.11;102098.53;10440089;28;20036;-67
2023/08/16 15:47:20;;;;;;;4.25;0.90;;;;;;;26.76;84.21;102114.50;10472891;28;20052;-69
2023/08/16 15:52:20;;;;;;;3.03;0.88;;;;;;;26.76;83.04;102114.50;10477086;28;20070;-67
2023/08/16 15:57:21;;;;;;;2.45;0.55;;;;;;;26.72;82.75;102105.03;10468307;28;20045;-69
2023/08/16 16:02:21;;;;;;;3.40;0.80;;;;;;;26.61;85.18;102093.25;10476271;28;20044;-69
2023/08/16 16:07:21;;;;;;;2.17;0.80;;;;;;;26.63;84.36;102084.44;10465264;28;20049;-67
2023/08/16 16:12:22;;;;;;;5.20;0.73;;;;;;;26.44;85.36;102084.75;10475280;28;20029;-66
2023/08/16 16:17:24;;;;;;;2.05;0.82;;;;;;;26.64;86.36;102095.41;10472718;28;20044;-71
2023/08/16 16:22:24;;;;;;;3.65;0.60;;;;;;;25.84;88.78;102104.13;10472105;28;20424;-70
2023/08/16 16:27:25;;;;;;;2.88;0.88;;;;;;;25.84;89.31;102118.25;10466255;28;20040;-69
2023/08/16 16:32:25;;;;;;;4.50;0.70;;;;;;;25.11;90.84;102112.13;10480859;28;20048;-68
2023/08/16 16:37:26;;;;;;;2.58;0.90;;;;;;;23.83;96.39;102106.81;10479442;28;20163;-66
2023/08/16 16:42:26;;;;;;;4.35;1.02;;;;;;;23.34;100.00;102120.44;10471399;28;20033;-65
2023/08/16 16:47:27;;;;;;;2.70;0.95;;;;;;;22.84;100.00;102126.66;10485921;28;20036;-65
2023/08/16 16:52:27;;;;;;;1.30;0.63;;;;;;;22.50;100.00;102122.16;10483967;28;20041;-66
2023/08/16 16:57:32;;;;;;;2.88;0.70;;;;;;;22.23;100.00;102124.81;10486436;28;20052;-65
2023/08/16 17:02:33;;;;;;;4.15;0.95;;;;;;;22.03;100.00;102128.72;10482499;28;20094;-66
2023/08/16 17:07:33;;;;;;;2.35;0.70;;;;;;;21.71;100.00;102121.88;10483791;28;20049;-65
2023/08/16 17:12:34;;;;;;;4.85;1.10;;;;;;;21.49;100.00;102134.44;10481890;28;20041;-65
2023/08/16 17:17:34;;;;;;;4.25;0.77;;;;;;;21.34;100.00;102148.59;10471599;28;20045;-65
2023/08/16 17:22:36;;;;;;;2.85;0.98;;;;;;;21.26;100.00;102135.25;10485427;28;20116;-66
2023/08/16 17:27:37;;;;;;;6.95;1.30;;;;;;;21.04;100.00;102133.78;10486068;28;20087;-67
2023/08/16 17:32:39;;;;;;;5.15;0.65;;;;;;;20.97;100.00;102133.28;10483958;28;20447;-67
2023/08/16 17:37:40;;;;;;;6.53;2.05;;;;;;;20.75;100.00;102126.22;10484928;28;20055;-67
2023/08/16 17:42:40;;;;;;;4.18;1.45;;;;;;;20.54;100.00;102131.09;10481335;28;20032;-67
2023/08/16 17:47:41;;;;;;;2.92;1.33;;;;;;;20.31;100.00;102121.47;10471715;28;20420;-68
2023/08/16 17:52:41;;;;;;;3.45;1.00;;;;;;;20.16;100.00;102124.38;10495392;28;20037;-66
2023/08/16 17:57:42;;;;;;;2.40;0.70;;;;;;;20.14;100.00;102137.81;10482279;28;20132;-67
2023/08/16 18:02:42;;;;;;;3.47;1.20;;;;;;;20.04;100.00;102143.47;10463645;28;20152;-67
2023/08/16 18:07:43;;;;;;;1.98;0.80;;;;;;;19.91;100.00;102133.75;10484142;28;20040;-66
2023/08/16 18:12:47;;;;;;;3.38;1.15;;;;;;;19.79;100.00;102144.44;10483316;28;20071;-65
2023/08/16 18:17:48;;;;;;;3.15;0.90;;;;;;;19.63;100.00;102154.78;10481402;28;20055;-65
2023/08/16 18:22:49;;;;;;;6.07;1.30;;;;;;;19.40;100.00;102164.63;10480006;28;20041;-65
2023/08/16 18:27:49;;;;;;;5.97;1.30;;;;;;;19.28;100.00;102174.13;10498021;28;20436;-65
2023/08/16 18:32:51;;;;;;;3.63;1.05;;;;;;;19.15;100.00;102183.09;10484333;28;20033;-64
2023/08/16 18:37:52;;;;;;;4.25;0.80;;;;;;;19.02;100.00;102194.84;10479172;28;20086;-65
2023/08/16 18:42:52;;;;;;;1.85;1.15;;;;;;;18.82;100.00;102195.66;10480985;28;20088;-65
2023/08/16 18:47:53;;;;;;;6.75;1.00;;;;;;;18.63;100.00;102203.69;10482528;28;20047;-65
2023/08/16 18:52:53;;;;;;;3.63;1.00;;;;;;;18.46;100.00;102199.19;10480346;28;20075;-65
2023/08/16 18:57:55;;;;;;;2.65;1.40;;;;;;;18.27;100.00;102200.81;10481677;28;20032;-65
2023/08/16 19:02:55;;;;;;;4.15;1.60;;;;;;;18.17;100.00;102211.91;10479955;28;20037;-65
2023/08/16 19:07:56;;;;;;;4.07;1.52;;;;;;;18.04;100.00;102224.41;10480876;28;20067;-65
2023/08/16 19:12:56;;;;;;;6.30;1.35;;;;;;;17.93;100.00;102224.38;10485435;28;20036;-65
2023/08/16 19:17:58;;;;;;;9.32;2.70;;;;;;;17.81;100.00;102220.94;10480449;28;20128;-65
2023/08/16 19:22:58;;;;;;;6.22;1.50;;;;;;;17.69;100.00;102223.94;10479457;28;20108;-65
2023/08/16 19:27:59;;;;;;;4.55;1.50;;;;;;;17.60;100.00;102219.16;10480841;28;20044;-65
2023/08/16 19:32:59;;;;;;;6.97;1.58;;;;;;;17.49;100.00;102224.66;10481593;28;20033;-65
2023/08/16 19:38:00;;;;;;;2.92;1.42;;;;;;;17.41;100.00;102227.09;10462622;28;20049;-65
2023/08/16 19:43:00;;;;;;;6.22;1.63;;;;;;;17.38;100.00;102228.44;10458056;28;20044;-66
2023/08/16 19:48:01;;;;;;;4.00;1.27;;;;;;;17.26;100.00;102225.03;10468662;28;20048;-67
2023/08/16 19:53:01;;;;;;;4.53;1.60;;;;;;;17.24;100.00;102221.66;10459168;28;20029;-66
2023/08/16 19:58:02;;;;;;;5.43;1.40;;;;;;;17.30;100.00;102240.09;10477970;28;20117;-67
2023/08/16 20:03:03;;;;;;;4.97;1.38;;;;;;;17.28;100.00;102245.06;10478586;28;20044;-67
2023/08/16 20:08:04;;;;;;;5.28;1.17;;;;;;;17.31;100.00;102239.00;10481848;28;20052;-64
2023/08/16 20:13:04;;;;;;;8.00;1.20;;;;;;;17.25;100.00;102237.28;10477689;28;20060;-66
2023/08/16 20:18:05;;;;;;;2.83;1.05;;;;;;;17.14;100.00;102239.13;10469447;28;20040;-66
2023/08/16 20:23:07;;;;;;;7.30;1.42;;;;;;;16.97;100.00;102222.59;10471490;28;20041;-66
2023/08/16 20:28:07;;;;;;;4.18;1.40;;;;;;;16.79;100.00;102225.72;10462252;28;20051;-66
2023/08/16 20:33:08;;;;;;;4.55;1.40;;;;;;;16.68;100.00;102225.63;10460570;28;20291;-66
2023/08/16 20:38:08;;;;;;;3.45;1.77;;;;;;;16.58;100.00;102222.72;10460930;28;20044;-65
2023/08/16 20:43:09;;;;;;;6.03;1.65;;;;;;;16.48;100.00;102222.63;10466533;28;20602;-65
2023/08/16 20:48:10;;;;;;;5.30;1.33;;;;;;;16.42;100.00;102226.44;10457635;28;20048;-66
2023/08/16 20:53:10;;;;;;;2.67;1.30;;;;;;;16.36;100.00;102221.94;10461455;28;20408;-65
2023/08/16 20:58:11;;;;;;;5.15;2.22;;;;;;;16.28;100.00;102221.28;10473820;28;20041;-64
2023/08/16 21:03:11;;;;;;;4.18;1.40;;;;;;;16.23;100.00;102235.13;10470066;28;20477;-65
2023/08/16 21:08:12;;;;;;;6.78;2.00;;;;;;;16.14;100.00;102231.97;10473652;28;20496;-65
2023/08/16 21:13:12;;;;;;;3.65;1.70;;;;;;;15.77;100.00;102189.25;10459605;28;20048;-65
2023/08/16 21:18:12;;;;;;;6.28;2.00;;;;;;;16.00;100.00;102241.78;10469135;28;20056;-65
2023/08/16 21:23:13;;;;;;;2.50;1.60;;;;;;;16.00;100.00;102243.69;10465851;28;20052;-65
2023/08/16 21:28:13;;;;;;;4.57;1.70;;;;;;;16.01;100.00;102259.28;10472766;28;20037;-65
2023/08/16 21:33:14;;;;;;;4.95;1.77;;;;;;;15.99;100.00;102259.53;10466554;28;20088;-65
2023/08/16 21:38:14;;;;;;;6.53;1.50;;;;;;;15.91;100.00;102258.03;10460759;28;20056;-65
2023/08/16 21:43:15;;;;;;;5.32;1.20;;;;;;;15.87;100.00;102265.19;10432662;28;20056;-65
2023/08/16 21:48:15;;;;;;;6.57;1.35;;;;;;;15.81;100.00;102262.59;10479874;28;20048;-65
2023/08/16 21:53:16;;;;;;;7.43;1.85;;;;;;;15.74;100.00;102248.91;10481484;28;20045;-65
2023/08/16 21:58:16;;;;;;;8.80;1.60;;;;;;;15.72;100.00;102245.53;10483182;28;20044;-65
2023/08/16 22:03:17;;;;;;;4.55;2.38;;;;;;;15.73;100.00;102241.69;10469000;28;20055;-65
2023/08/16 22:08:17;;;;;;;6.72;1.80;;;;;;;15.68;100.00;102224.91;10468208;28;20040;-64
2023/08/16 22:13:18;;;;;;;8.63;1.85;;;;;;;15.66;100.00;102221.56;10467331;28;20860;-65
2023/08/16 22:18:19;;;;;;;2.83;1.77;;;;;;;15.76;100.00;102220.91;10460928;28;20068;-65
2023/08/16 22:23:19;;;;;;;5.47;1.55;;;;;;;15.81;100.00;102221.78;10475715;28;20053;-65
2023/08/16 22:28:20;;;;;;;4.70;1.10;;;;;;;15.81;100.00;102209.84;10460180;28;20037;-63
2023/08/16 22:33:22;;;;;;;2.30;1.20;;;;;;;15.84;100.00;102204.63;10437850;28;20037;-65
2023/08/16 22:38:23;;;;;;;2.15;1.10;;;;;;;15.82;100.00;102192.94;10480592;28;20172;-66
2023/08/16 22:43:23;;;;;;;3.97;1.45;;;;;;;15.82;100.00;102192.94;10463409;28;20037;-65